createdAt,value
2022-11-21T00:00:51.739Z,0.70
2022-11-21T00:03:18.795Z,0.70
2022-11-21T00:05:47.691Z,0.70
2022-11-21T00:08:16.956Z,0.60
2022-11-21T00:10:44.540Z,0.40
2022-11-21T00:13:29.324Z,0.10
2022-11-21T00:15:55.987Z,0.00
2022-11-21T00:18:22.667Z,-0.10
2022-11-21T00:20:49.309Z,-0.10
2022-11-21T00:23:15.949Z,-0.10
2022-11-21T00:25:42.553Z,-0.10
2022-11-21T00:28:09.121Z,-0.10
2022-11-21T00:30:36.025Z,-0.10
2022-11-21T00:33:02.713Z,0.00
2022-11-21T00:35:30.866Z,0.10
2022-11-21T00:37:57.529Z,-0.10
2022-11-21T00:40:24.187Z,-0.10
2022-11-21T00:42:50.844Z,-0.10
2022-11-21T00:45:23.814Z,-0.10
2022-11-21T00:47:51.018Z,-0.10
2022-11-21T00:50:17.946Z,0.00
2022-11-21T00:52:44.664Z,0.00
2022-11-21T00:55:11.317Z,-0.10
2022-11-21T00:57:37.933Z,0.00
2022-11-21T01:00:06.300Z,0.00
2022-11-21T01:02:33.038Z,0.00
2022-11-21T01:04:59.681Z,0.00
2022-11-21T01:07:26.360Z,0.10
2022-11-21T01:09:53.113Z,0.10
2022-11-21T01:12:19.776Z,0.10
2022-11-21T01:14:46.402Z,0.20
2022-11-21T01:17:13.007Z,0.20
2022-11-21T01:19:39.670Z,0.30
2022-11-21T01:22:08.522Z,0.20
2022-11-21T01:24:35.267Z,0.10
2022-11-21T01:27:02.006Z,0.20
2022-11-21T01:29:28.711Z,0.30
2022-11-21T01:31:55.364Z,0.30
2022-11-21T01:34:22.467Z,0.20
2022-11-21T01:36:49.163Z,0.30
2022-11-21T01:39:15.789Z,0.30
2022-11-21T01:41:44.850Z,0.30
2022-11-21T01:44:26.484Z,0.40
2022-11-21T01:46:54.368Z,0.30
2022-11-21T01:49:24.063Z,0.30
2022-11-21T01:51:59.875Z,0.40
2022-11-21T01:54:36.450Z,0.30
2022-11-21T01:57:36.579Z,0.30
2022-11-21T02:00:21.467Z,0.30
2022-11-21T02:02:52.985Z,0.20
2022-11-21T02:05:25.065Z,0.20
2022-11-21T02:07:55.189Z,0.20
2022-11-21T02:10:22.926Z,0.20
2022-11-21T02:12:51.783Z,0.10
2022-11-21T02:15:20.285Z,0.20
2022-11-21T02:17:46.918Z,0.20
2022-11-21T02:20:17.461Z,0.30
2022-11-21T02:23:08.602Z,0.30
2022-11-21T02:25:41.386Z,0.30
2022-11-21T02:28:20.914Z,0.40
2022-11-21T02:30:47.549Z,0.30
2022-11-21T02:33:14.823Z,0.30
2022-11-21T02:35:42.145Z,0.30
2022-11-21T02:38:11.828Z,0.30
2022-11-21T02:40:43.954Z,0.50
2022-11-21T02:43:21.665Z,0.50
2022-11-21T02:45:48.338Z,0.60
2022-11-21T02:48:15.230Z,0.60
2022-11-21T02:50:46.924Z,0.60
2022-11-21T02:53:15.790Z,0.70
2022-11-21T02:55:43.271Z,0.60
2022-11-21T02:58:10.370Z,0.60
2022-11-21T03:00:40.786Z,0.40
2022-11-21T03:03:07.777Z,0.30
2022-11-21T03:05:35.050Z,0.20
2022-11-21T03:08:02.204Z,0.10
2022-11-21T03:10:28.830Z,0.00
2022-11-21T03:13:00.826Z,0.00
2022-11-21T03:15:33.682Z,0.00
2022-11-21T03:18:02.642Z,-0.10
2022-11-21T03:20:34.439Z,-0.20
2022-11-21T03:23:01.210Z,-0.10
2022-11-21T03:25:27.875Z,-0.10
2022-11-21T03:27:55.101Z,0.00
2022-11-21T03:30:23.432Z,-0.10
2022-11-21T03:32:50.166Z,-0.10
2022-11-21T03:35:17.686Z,0.00
2022-11-21T03:37:44.338Z,0.10
2022-11-21T03:40:11.777Z,0.10
2022-11-21T03:42:38.530Z,0.10
2022-11-21T03:45:05.603Z,0.20
2022-11-21T03:47:32.365Z,0.10
2022-11-21T03:49:59.074Z,0.30
2022-11-21T03:52:25.834Z,0.20
2022-11-21T03:54:52.482Z,0.30
2022-11-21T03:57:19.173Z,0.30
2022-11-21T03:59:45.901Z,0.40
2022-11-21T04:02:12.516Z,0.40
2022-11-21T04:04:41.717Z,0.40
2022-11-21T04:07:08.472Z,0.40
2022-11-21T04:09:35.161Z,0.50
2022-11-21T04:12:07.272Z,0.50
2022-11-21T04:14:34.959Z,0.50
2022-11-21T04:17:01.876Z,0.50
2022-11-21T04:19:28.547Z,0.50
2022-11-21T04:21:55.303Z,0.60
2022-11-21T04:24:22.028Z,0.60
2022-11-21T04:26:48.698Z,0.50
2022-11-21T04:29:15.333Z,0.50
2022-11-21T04:31:42.090Z,0.40
2022-11-21T04:34:08.717Z,0.40
2022-11-21T04:36:35.394Z,0.40
2022-11-21T04:39:02.058Z,0.40
2022-11-21T04:41:28.764Z,0.40
2022-11-21T04:43:55.405Z,0.40
2022-11-21T04:46:22.018Z,0.50
2022-11-21T04:48:48.783Z,0.60
2022-11-21T04:51:15.407Z,0.60
2022-11-21T04:53:43.295Z,0.50
2022-11-21T04:56:10.231Z,0.50
2022-11-21T04:58:37.073Z,0.40
2022-11-21T05:01:08.624Z,0.40
2022-11-21T05:03:35.981Z,0.30
2022-11-21T05:06:03.158Z,0.30
2022-11-21T05:08:29.838Z,0.40
2022-11-21T05:11:15.614Z,0.40
2022-11-21T05:13:42.262Z,0.30
2022-11-21T05:16:09.474Z,0.30
2022-11-21T05:18:36.140Z,0.30
2022-11-21T05:21:03.302Z,0.30
2022-11-21T05:23:30.105Z,0.40
2022-11-21T05:25:56.762Z,0.50
2022-11-21T05:28:23.467Z,0.50
2022-11-21T05:30:50.082Z,0.50
2022-11-21T05:33:16.922Z,0.60
2022-11-21T05:35:43.941Z,0.60
2022-11-21T05:38:11.009Z,0.50
2022-11-21T05:40:37.666Z,0.50
2022-11-21T05:43:22.765Z,0.50
2022-11-21T05:45:50.221Z,0.50
2022-11-21T05:48:17.694Z,0.50
2022-11-21T05:50:48.466Z,0.40
2022-11-21T05:53:15.558Z,0.50
2022-11-21T05:55:42.185Z,0.50
2022-11-21T05:58:10.692Z,0.50
2022-11-21T06:00:38.225Z,0.40
2022-11-21T06:03:24.957Z,0.30
2022-11-21T06:05:51.852Z,0.20
2022-11-21T06:08:18.941Z,0.20
2022-11-21T06:10:45.570Z,0.10
2022-11-21T06:13:24.402Z,0.10
2022-11-21T06:15:59.876Z,0.00
2022-11-21T06:18:27.394Z,0.00
2022-11-21T06:20:54.486Z,0.00
2022-11-21T06:23:21.141Z,0.00
2022-11-21T06:25:48.275Z,0.10
2022-11-21T06:28:14.943Z,0.10
2022-11-21T06:30:41.562Z,0.10
2022-11-21T06:33:08.666Z,0.20
2022-11-21T06:35:38.593Z,0.20
2022-11-21T06:38:05.334Z,0.20
2022-11-21T06:40:32.033Z,0.20
2022-11-21T06:42:58.764Z,0.20
2022-11-21T06:45:25.374Z,0.20
2022-11-21T06:47:51.986Z,0.10
2022-11-21T06:50:18.666Z,0.20
2022-11-21T06:52:45.302Z,0.20
2022-11-21T06:55:12.313Z,0.10
2022-11-21T06:57:38.882Z,0.10
2022-11-21T07:00:06.703Z,0.20
2022-11-21T07:02:33.365Z,0.30
2022-11-21T07:05:00.031Z,0.30
2022-11-21T07:07:26.733Z,0.30
2022-11-21T07:09:53.453Z,0.40
2022-11-21T07:12:52.159Z,0.40
2022-11-21T07:15:19.315Z,0.50
2022-11-21T07:17:46.111Z,0.40
2022-11-21T07:20:13.466Z,0.40
2022-11-21T07:22:40.165Z,0.40
2022-11-21T07:25:07.107Z,0.50
2022-11-21T07:27:33.809Z,0.60
2022-11-21T07:30:00.498Z,0.50
2022-11-21T07:32:27.962Z,0.60
2022-11-21T07:34:54.564Z,0.50
2022-11-21T07:37:21.166Z,0.60
2022-11-21T07:39:47.810Z,0.70
2022-11-21T07:42:14.510Z,0.70
2022-11-21T07:44:42.009Z,0.60
2022-11-21T07:47:08.667Z,0.50
2022-11-21T07:49:35.352Z,0.50
2022-11-21T07:52:04.530Z,0.60
2022-11-21T07:54:31.483Z,0.50
2022-11-21T07:56:58.153Z,0.60
2022-11-21T07:59:24.858Z,0.70
2022-11-21T08:01:52.373Z,0.80
2022-11-21T08:04:19.409Z,0.90
2022-11-21T08:06:46.356Z,0.90
2022-11-21T08:09:12.958Z,0.90
2022-11-21T08:11:39.553Z,1.00
2022-11-21T08:14:06.186Z,1.00
2022-11-21T08:16:32.874Z,1.00
2022-11-21T08:19:00.034Z,1.10
2022-11-21T08:21:27.006Z,1.10
2022-11-21T08:23:54.476Z,1.20
2022-11-21T08:26:21.215Z,1.20
2022-11-21T08:28:47.861Z,1.20
2022-11-21T08:31:14.601Z,1.30
2022-11-21T08:33:41.321Z,1.20
2022-11-21T08:36:08.137Z,1.20
2022-11-21T08:38:34.756Z,1.30
2022-11-21T08:41:19.999Z,1.20
2022-11-21T08:43:46.584Z,1.10
2022-11-21T08:46:13.279Z,1.20
2022-11-21T08:48:40.024Z,1.00
2022-11-21T08:51:06.781Z,0.90
2022-11-21T08:53:33.466Z,0.80
2022-11-21T08:56:03.930Z,0.70
2022-11-21T08:58:31.205Z,0.60
2022-11-21T09:00:59.438Z,0.60
2022-11-21T09:03:30.820Z,0.70
2022-11-21T09:05:58.869Z,0.70
2022-11-21T09:08:26.140Z,0.60
2022-11-21T09:10:52.775Z,0.50
2022-11-21T09:13:20.254Z,0.60
2022-11-21T09:16:05.464Z,0.80
2022-11-21T09:18:32.065Z,0.90
2022-11-21T09:20:59.038Z,1.00
2022-11-21T09:23:26.100Z,1.10
2022-11-21T09:25:52.883Z,1.40
2022-11-21T09:28:19.914Z,1.60
2022-11-21T09:30:46.598Z,1.70
2022-11-21T09:33:15.073Z,1.70
2022-11-21T09:35:41.672Z,1.90
2022-11-21T09:38:08.523Z,1.90
2022-11-21T09:40:36.185Z,2.00
2022-11-21T09:43:05.589Z,2.10
2022-11-21T09:45:46.353Z,2.30
2022-11-21T09:48:23.737Z,2.30
2022-11-21T09:50:55.409Z,2.50
2022-11-21T09:53:31.017Z,2.50
2022-11-21T09:56:06.721Z,2.70
2022-11-21T09:58:39.120Z,2.60
2022-11-21T10:01:05.965Z,2.60
2022-11-21T10:03:43.737Z,2.70
2022-11-21T10:06:23.927Z,2.90
2022-11-21T10:09:23.538Z,2.90
2022-11-21T10:12:39.670Z,3.00
2022-11-21T10:15:25.097Z,3.10
2022-11-21T10:17:54.716Z,3.30
2022-11-21T10:21:12.127Z,3.10
2022-11-21T10:23:45.033Z,3.10
2022-11-21T10:26:34.498Z,2.90
2022-11-21T10:29:05.153Z,3.10
2022-11-21T10:31:38.159Z,3.10
2022-11-21T10:34:12.781Z,3.40
2022-11-21T10:36:49.657Z,3.20
2022-11-21T10:39:19.588Z,3.30
2022-11-21T10:42:12.176Z,3.50
2022-11-21T10:44:57.380Z,3.60
2022-11-21T10:47:31.545Z,3.30
2022-11-21T10:50:29.570Z,2.80
2022-11-21T10:53:28.375Z,2.60
2022-11-21T10:56:07.448Z,2.40
2022-11-21T10:58:43.491Z,2.30
2022-11-21T11:01:29.019Z,2.40
2022-11-21T11:04:41.550Z,2.70
2022-11-21T11:07:23.565Z,3.00
2022-11-21T11:09:52.207Z,3.00
2022-11-21T11:12:50.265Z,2.60
2022-11-21T11:15:23.484Z,2.00
2022-11-21T11:17:58.079Z,1.70
2022-11-21T11:20:42.614Z,1.50
2022-11-21T11:23:24.625Z,1.30
2022-11-21T11:25:59.497Z,1.50
2022-11-21T11:28:27.172Z,1.60
2022-11-21T11:30:55.475Z,1.70
2022-11-21T11:33:31.249Z,1.90
2022-11-21T11:36:16.541Z,1.90
2022-11-21T11:38:52.193Z,2.10
2022-11-21T11:41:25.643Z,2.10
2022-11-21T11:44:31.681Z,2.20
2022-11-21T11:47:22.680Z,2.00
2022-11-21T11:50:13.060Z,2.10
2022-11-21T11:53:08.028Z,2.00
2022-11-21T11:55:47.619Z,2.10
2022-11-21T11:58:33.771Z,2.10
2022-11-21T12:01:03.070Z,2.10
2022-11-21T12:03:57.944Z,2.10
2022-11-21T12:06:57.397Z,2.20
2022-11-21T12:09:29.993Z,2.40
2022-11-21T12:12:15.246Z,2.60
2022-11-21T12:15:06.547Z,2.50
2022-11-21T12:18:11.994Z,2.60
2022-11-21T12:20:50.525Z,2.40
2022-11-21T12:23:18.630Z,2.30
2022-11-21T12:26:17.875Z,2.10
2022-11-21T12:29:06.223Z,2.00
2022-11-21T12:31:59.250Z,1.90
2022-11-21T12:34:44.739Z,1.90
2022-11-21T12:37:43.661Z,1.90
2022-11-21T12:40:33.399Z,2.00
2022-11-21T12:43:25.326Z,2.10
2022-11-21T12:46:31.811Z,2.00
2022-11-21T12:49:42.845Z,2.10
2022-11-21T12:52:52.121Z,2.10
2022-11-21T12:55:37.918Z,2.20
2022-11-21T12:58:23.182Z,2.20
2022-11-21T13:01:01.999Z,2.20
2022-11-21T13:03:51.490Z,2.20
2022-11-21T13:06:23.583Z,2.30
2022-11-21T13:08:53.225Z,2.30
2022-11-21T13:12:00.600Z,2.30
2022-11-21T13:14:42.053Z,2.20
2022-11-21T13:17:31.663Z,2.10
2022-11-21T13:20:17.136Z,1.90
2022-11-21T13:22:47.259Z,1.90
2022-11-21T13:25:40.643Z,1.80
2022-11-21T13:28:13.330Z,1.90
2022-11-21T13:30:53.501Z,2.00
2022-11-21T13:33:35.412Z,2.00
2022-11-21T13:36:12.863Z,1.90
2022-11-21T13:38:52.687Z,1.90
2022-11-21T13:41:53.395Z,2.00
2022-11-21T13:44:43.764Z,2.00
2022-11-21T13:47:25.669Z,2.00
2022-11-21T13:49:55.360Z,2.00
2022-11-21T13:52:47.221Z,2.00
2022-11-21T13:55:56.083Z,2.00
2022-11-21T13:58:28.534Z,2.00
2022-11-21T14:00:58.485Z,2.10
2022-11-21T14:04:02.996Z,2.10
2022-11-21T14:06:38.487Z,2.20
2022-11-21T14:09:18.304Z,2.20
2022-11-21T14:11:50.954Z,2.20
2022-11-21T14:14:42.909Z,2.10
2022-11-21T14:17:36.088Z,2.00
2022-11-21T14:20:48.727Z,2.00
2022-11-21T14:23:20.696Z,1.90
2022-11-21T14:25:57.445Z,1.90
2022-11-21T14:28:28.771Z,1.90
2022-11-21T14:31:06.917Z,1.90
2022-11-21T14:33:38.464Z,2.00
2022-11-21T14:36:07.157Z,1.90
2022-11-21T14:38:43.408Z,1.90
2022-11-21T14:41:25.427Z,2.00
2022-11-21T14:43:58.192Z,1.90
2022-11-21T14:46:26.966Z,1.90
2022-11-21T14:48:53.761Z,1.90
2022-11-21T14:51:25.180Z,1.90
2022-11-21T14:53:53.630Z,1.90
2022-11-21T14:56:29.729Z,2.10
2022-11-21T14:58:59.196Z,2.00
2022-11-21T15:01:29.143Z,2.00
2022-11-21T15:04:07.204Z,2.10
2022-11-21T15:06:42.770Z,2.00
2022-11-21T15:10:25.074Z,1.90
2022-11-21T15:12:05.211Z,1.80
2022-11-21T15:14:37.995Z,1.70
2022-11-21T15:17:11.454Z,1.80
2022-11-21T15:19:38.383Z,1.70
2022-11-21T15:22:05.275Z,1.60
2022-11-21T15:24:43.633Z,1.50
2022-11-21T15:27:31.999Z,1.60
2022-11-21T15:30:25.147Z,1.50
2022-11-21T15:33:11.254Z,1.40
2022-11-21T15:35:37.821Z,1.50
2022-11-21T15:38:13.545Z,1.40
2022-11-21T15:40:45.581Z,1.30
2022-11-21T15:43:45.858Z,1.30
2022-11-21T15:46:18.560Z,1.30
2022-11-21T15:48:47.200Z,1.30
2022-11-21T15:51:14.975Z,1.30
2022-11-21T15:53:41.710Z,1.40
2022-11-21T15:56:11.275Z,1.30
2022-11-21T15:58:38.168Z,1.30
2022-11-21T16:01:05.064Z,1.30
2022-11-21T16:03:32.077Z,1.30
2022-11-21T16:05:58.820Z,1.30
2022-11-21T16:08:25.488Z,1.30
2022-11-21T16:10:52.104Z,1.30
2022-11-21T16:13:18.707Z,1.30
2022-11-21T16:15:45.447Z,1.30
2022-11-21T16:18:12.151Z,1.30
2022-11-21T16:20:38.786Z,1.30
2022-11-21T16:23:05.534Z,1.40
2022-11-21T16:25:32.281Z,1.50
2022-11-21T16:28:01.737Z,1.50
2022-11-21T16:30:31.007Z,1.50
2022-11-21T16:33:01.735Z,1.50
2022-11-21T16:35:28.359Z,1.60
2022-11-21T16:37:55.026Z,1.50
2022-11-21T16:40:21.747Z,1.60
2022-11-21T16:42:48.368Z,1.50
2022-11-21T16:45:15.377Z,1.50
2022-11-21T16:47:45.903Z,1.50
2022-11-21T16:50:15.476Z,1.50
2022-11-21T16:52:42.088Z,1.40
2022-11-21T16:55:08.951Z,1.40
2022-11-21T16:57:36.294Z,1.50
2022-11-21T17:00:03.787Z,1.40
2022-11-21T17:02:30.664Z,1.40
2022-11-21T17:04:57.269Z,1.40
2022-11-21T17:07:23.980Z,1.50
2022-11-21T17:09:51.893Z,1.50
2022-11-21T17:12:18.559Z,1.50
2022-11-21T17:14:47.442Z,1.50
2022-11-21T17:17:14.246Z,1.50
2022-11-21T17:19:41.017Z,1.60
2022-11-21T17:22:07.683Z,1.70
2022-11-21T17:24:34.359Z,1.60
2022-11-21T17:27:02.449Z,1.60
2022-11-21T17:29:29.936Z,1.60
2022-11-21T17:31:56.748Z,1.60
2022-11-21T17:34:27.060Z,1.50
2022-11-21T17:36:58.083Z,1.50
2022-11-21T17:39:29.660Z,1.50
2022-11-21T17:41:59.322Z,1.50
2022-11-21T17:44:26.260Z,1.50
2022-11-21T17:46:53.240Z,1.50
2022-11-21T17:49:20.443Z,1.50
2022-11-21T17:51:47.119Z,1.50
2022-11-21T17:54:13.815Z,1.50
2022-11-21T17:56:45.418Z,1.50
2022-11-21T17:59:14.111Z,1.50
2022-11-21T18:01:41.166Z,1.60
2022-11-21T18:04:13.540Z,1.50
2022-11-21T18:06:41.869Z,1.50
2022-11-21T18:09:11.128Z,1.50
2022-11-21T18:11:40.319Z,1.60
2022-11-21T18:14:08.688Z,1.50
2022-11-21T18:16:35.528Z,1.50
2022-11-21T18:19:02.416Z,1.50
2022-11-21T18:21:31.116Z,1.50
2022-11-21T18:23:59.558Z,1.50
2022-11-21T18:26:28.603Z,1.40
2022-11-21T18:29:20.639Z,1.50
2022-11-21T18:31:44.182Z,1.50
2022-11-21T18:34:12.531Z,1.50
2022-11-21T18:36:39.432Z,1.50
2022-11-21T18:39:14.051Z,1.60
2022-11-21T18:41:41.642Z,1.50
2022-11-21T18:44:08.289Z,1.50
2022-11-21T18:46:47.027Z,1.60
2022-11-21T18:49:14.121Z,1.60
2022-11-21T18:51:40.749Z,1.60
2022-11-21T18:54:09.495Z,1.60
2022-11-21T18:56:37.651Z,1.60
2022-11-21T18:59:05.706Z,1.60
2022-11-21T19:01:33.731Z,1.60
2022-11-21T19:04:00.674Z,1.60
2022-11-21T19:06:28.083Z,1.60
2022-11-21T19:08:56.992Z,1.60
2022-11-21T19:11:26.880Z,1.60
2022-11-21T19:13:54.967Z,1.50
2022-11-21T19:16:24.770Z,1.50
2022-11-21T19:21:41.209Z,1.50
2022-11-21T19:24:12.861Z,1.50
2022-11-21T19:26:39.875Z,1.50
2022-11-21T19:29:06.568Z,1.60
2022-11-21T19:31:34.831Z,1.60
2022-11-21T19:34:03.315Z,1.70
2022-11-21T19:36:30.170Z,1.70
2022-11-21T19:38:56.864Z,1.70
2022-11-21T19:41:26.102Z,1.80
2022-11-21T19:44:02.996Z,1.80
2022-11-21T19:46:32.784Z,1.90
2022-11-21T19:49:00.587Z,1.80
2022-11-21T19:51:45.598Z,1.90
2022-11-21T19:54:16.554Z,1.80
2022-11-21T19:56:43.440Z,1.90
2022-11-21T19:59:12.576Z,1.80
2022-11-21T20:01:39.660Z,1.80
2022-11-21T20:04:06.710Z,1.90
2022-11-21T20:06:38.949Z,1.80
2022-11-21T20:09:08.623Z,1.90
2022-11-21T20:11:36.916Z,1.90
2022-11-21T20:14:03.717Z,1.90
2022-11-21T20:16:39.417Z,1.90
2022-11-21T20:19:09.782Z,1.90
2022-11-21T20:21:37.665Z,1.90
2022-11-21T20:24:06.408Z,2.00
2022-11-21T20:26:34.065Z,1.90
2022-11-21T20:29:01.071Z,2.00
2022-11-21T20:31:32.861Z,1.90
2022-11-21T20:34:02.184Z,1.90
2022-11-21T20:36:31.826Z,1.90
2022-11-21T20:39:04.190Z,1.90
2022-11-21T20:41:33.614Z,1.90
2022-11-21T20:44:53.273Z,1.90
2022-11-21T20:46:49.709Z,1.90
2022-11-21T20:49:16.404Z,1.90
2022-11-21T20:54:30.589Z,1.90
2022-11-21T20:56:57.433Z,1.90
2022-11-21T20:59:25.760Z,1.90
2022-11-21T21:01:52.490Z,2.00
2022-11-21T21:04:19.271Z,2.00
2022-11-21T21:06:45.972Z,2.00
2022-11-21T21:09:13.137Z,1.90
2022-11-21T21:11:55.155Z,1.90
2022-11-21T21:14:22.411Z,2.00
2022-11-21T21:16:49.612Z,2.00
2022-11-21T21:19:16.959Z,1.90
2022-11-21T21:21:43.660Z,1.90
2022-11-21T21:24:11.468Z,2.00
2022-11-21T21:26:42.856Z,2.00
2022-11-21T21:29:16.589Z,2.00
2022-11-21T21:31:50.016Z,1.90
2022-11-21T21:34:17.662Z,1.90
2022-11-21T21:36:44.430Z,2.00
2022-11-21T21:39:11.345Z,2.00
2022-11-21T21:41:39.921Z,1.90
2022-11-21T21:44:07.193Z,1.90
2022-11-21T21:46:33.858Z,1.90
2022-11-21T21:49:00.646Z,1.90
2022-11-21T21:51:29.666Z,2.00
2022-11-21T21:53:58.247Z,1.90
2022-11-21T21:56:27.016Z,1.90
2022-11-21T21:58:54.102Z,1.90
2022-11-21T22:01:25.008Z,1.90
2022-11-21T22:03:57.069Z,1.90
2022-11-21T22:06:24.424Z,2.00
2022-11-21T22:08:51.468Z,1.90
2022-11-21T22:11:20.689Z,1.90
2022-11-21T22:13:51.797Z,2.00
2022-11-21T22:16:18.520Z,2.00
2022-11-21T22:18:45.195Z,1.90
2022-11-21T22:21:27.912Z,1.90
2022-11-21T22:24:23.699Z,2.00
2022-11-21T22:26:42.891Z,2.10
2022-11-21T22:29:10.089Z,2.20
2022-11-21T22:31:37.401Z,2.20
2022-11-21T22:34:04.304Z,2.20
2022-11-21T22:36:31.198Z,2.20
2022-11-21T22:38:57.900Z,2.10
2022-11-21T22:41:26.631Z,2.10
2022-11-21T22:43:55.268Z,2.10
2022-11-21T22:46:23.051Z,2.10
2022-11-21T22:48:49.853Z,2.20
2022-11-21T22:51:22.752Z,2.20
2022-11-21T22:53:50.111Z,2.30
2022-11-21T22:56:18.932Z,2.30
2022-11-21T22:58:46.238Z,2.30
2022-11-21T23:01:15.663Z,2.30
2022-11-21T23:03:43.277Z,2.30
2022-11-21T23:06:13.981Z,2.40
2022-11-21T23:08:41.221Z,2.30
2022-11-21T23:11:10.861Z,2.40
2022-11-21T23:13:38.757Z,2.30
2022-11-21T23:16:06.552Z,2.30
2022-11-21T23:18:34.282Z,2.30
2022-11-21T23:21:01.732Z,2.30
2022-11-21T23:23:28.701Z,2.20
2022-11-21T23:25:55.325Z,2.20
2022-11-21T23:28:22.442Z,2.20
2022-11-21T23:30:50.062Z,2.20
2022-11-21T23:33:17.596Z,2.20
2022-11-21T23:35:45.858Z,2.20
2022-11-21T23:38:14.639Z,2.20
2022-11-21T23:40:41.379Z,2.30
2022-11-21T23:43:08.038Z,2.30
2022-11-21T23:45:35.104Z,2.40
2022-11-21T23:48:01.713Z,2.30
2022-11-21T23:50:28.353Z,2.30
2022-11-21T23:52:55.051Z,2.30
2022-11-21T23:55:21.853Z,2.30
2022-11-21T23:57:49.181Z,2.40
